Time;durP1;ratioP1;P1;durP2;ratioP2;P2;SDS_P1;SDS_P2;PMS_P1;PMS_P2;Temp;Humidity;BMP_temperature;BMP_pressure;BME280_temperature;BME280_humidity;BME280_pressure;Samples;Min_cycle;Max_cycle;Signal;HPM_P1;HPM_P2
2022/06/28 00:00:18;;;;;;;4.00;3.15;;;16.90;99.90;;;;;;5073633;28;20252;-70
2022/06/28 00:02:45;;;;;;;5.38;3.63;;;16.90;99.90;;;;;;5074419;28;20247;-71
2022/06/28 00:05:12;;;;;;;4.10;2.85;;;16.80;99.90;;;;;;5073853;28;20269;-67
2022/06/28 00:07:41;;;;;;;3.60;2.83;;;16.80;99.90;;;;;;5074193;28;20202;-71
2022/06/28 00:10:10;;;;;;;3.60;2.85;;;16.80;99.90;;;;;;5074336;28;20242;-67
2022/06/28 00:12:38;;;;;;;6.72;4.00;;;16.80;99.90;;;;;;5079411;28;20206;-67
2022/06/28 00:17:51;;;;;;;4.95;3.85;;;16.80;99.90;;;;;;5084152;28;20208;-68
2022/06/28 00:20:18;;;;;;;9.05;5.05;;;16.80;99.90;;;;;;5093571;28;20254;-71
2022/06/28 00:22:46;;;;;;;8.10;3.42;;;16.80;99.90;;;;;;5094316;28;20233;-71
2022/06/28 00:25:13;;;;;;;7.45;3.40;;;16.80;99.90;;;;;;5079469;28;20279;-67
2022/06/28 00:27:41;;;;;;;4.10;3.15;;;16.80;99.90;;;;;;5094056;28;20231;-67
2022/06/28 00:30:09;;;;;;;4.97;3.03;;;16.80;99.90;;;;;;5093907;28;20209;-67
2022/06/28 00:32:36;;;;;;;10.00;3.30;;;16.80;99.90;;;;;;5093700;28;20229;-67
2022/06/28 00:35:04;;;;;;;6.28;3.55;;;16.80;99.90;;;;;;5094350;28;20213;-67
2022/06/28 00:37:31;;;;;;;6.57;3.72;;;16.80;99.90;;;;;;5093877;28;20231;-67
2022/06/28 00:40:00;;;;;;;5.38;3.45;;;16.80;99.90;;;;;;5094186;28;20259;-67
2022/06/28 00:42:27;;;;;;;4.03;3.28;;;16.80;99.90;;;;;;5078873;28;20674;-67
2022/06/28 00:44:54;;;;;;;4.85;3.15;;;16.80;99.90;;;;;;5093866;28;20279;-68
2022/06/28 00:47:21;;;;;;;3.10;2.80;;;16.80;99.90;;;;;;5093172;28;20267;-68
2022/06/28 00:49:48;;;;;;;6.25;3.00;;;16.80;99.90;;;;;;5065954;28;20211;-67
2022/06/28 00:52:16;;;;;;;6.90;3.85;;;16.80;99.90;;;;;;5093257;28;20247;-68
2022/06/28 00:54:43;;;;;;;9.40;3.63;;;16.80;99.90;;;;;;5093567;28;20232;-68
2022/06/28 00:57:11;;;;;;;5.13;3.60;;;16.80;99.90;;;;;;5092828;28;20237;-67
2022/06/28 00:59:38;;;;;;;5.63;3.88;;;16.70;99.90;;;;;;5092717;28;20201;-67
2022/06/28 01:02:05;;;;;;;6.03;3.50;;;16.70;99.90;;;;;;5093575;28;20251;-67
2022/06/28 01:04:32;;;;;;;5.15;3.88;;;16.70;99.90;;;;;;5092923;28;20237;-67
2022/06/28 01:06:59;;;;;;;4.20;3.45;;;16.70;99.90;;;;;;5093494;28;20247;-67
2022/06/28 01:09:26;;;;;;;7.60;3.53;;;16.70;99.90;;;;;;5093093;28;20618;-67
2022/06/28 01:11:53;;;;;;;5.65;3.38;;;16.80;99.90;;;;;;5092984;28;20630;-69
2022/06/28 01:14:25;;;;;;;5.25;2.92;;;16.80;99.90;;;;;;5092700;28;20205;-68
2022/06/28 01:16:53;;;;;;;10.25;5.03;;;16.80;99.90;;;;;;5078523;28;20754;-68
2022/06/28 01:19:20;;;;;;;4.90;4.28;;;16.70;99.90;;;;;;5092734;28;20673;-68
2022/06/28 01:21:50;;;;;;;4.90;3.22;;;16.70;99.90;;;;;;5092924;28;20730;-70
2022/06/28 01:24:18;;;;;;;4.00;2.65;;;16.70;99.90;;;;;;5092776;28;20292;-70
2022/06/28 01:26:46;;;;;;;4.85;3.40;;;16.80;99.90;;;;;;5092439;28;20311;-69
2022/06/28 01:29:14;;;;;;;4.95;3.65;;;16.80;99.90;;;;;;5092584;28;20208;-69
2022/06/28 01:31:41;;;;;;;5.68;2.92;;;16.70;99.90;;;;;;5092953;28;20201;-71
2022/06/28 01:34:09;;;;;;;5.57;3.58;;;16.80;99.90;;;;;;5056937;28;20260;-69
2022/06/28 01:36:36;;;;;;;9.68;4.18;;;16.70;99.90;;;;;;5077662;28;20288;-70
2022/06/28 01:39:04;;;;;;;4.82;3.47;;;16.70;99.90;;;;;;5092932;28;20689;-70
2022/06/28 01:41:36;;;;;;;7.53;3.85;;;16.70;99.90;;;;;;5092250;28;20217;-69
2022/06/28 01:44:04;;;;;;;3.92;3.00;;;16.70;99.90;;;;;;5092717;28;20213;-70
2022/06/28 01:46:32;;;;;;;5.03;3.58;;;16.70;99.90;;;;;;5092658;28;20229;-70
2022/06/28 01:48:59;;;;;;;6.50;3.72;;;16.70;99.90;;;;;;5092427;28;20669;-68
2022/06/28 01:51:26;;;;;;;4.25;3.17;;;16.60;99.90;;;;;;5092238;28;20263;-68
2022/06/28 01:53:53;;;;;;;5.45;3.15;;;16.70;99.90;;;;;;5072885;28;20203;-70
2022/06/28 01:56:20;;;;;;;4.47;3.45;;;16.70;99.90;;;;;;5071605;28;20662;-71
2022/06/28 01:58:48;;;;;;;6.38;3.47;;;16.70;99.90;;;;;;5072144;28;20331;-70
2022/06/28 02:01:15;;;;;;;3.53;2.80;;;16.70;99.90;;;;;;5071808;28;20202;-70
2022/06/28 02:03:42;;;;;;;5.13;3.67;;;16.70;99.90;;;;;;5071291;28;20299;-70
2022/06/28 02:06:10;;;;;;;4.82;3.10;;;16.60;99.90;;;;;;5071974;28;20705;-70
2022/06/28 02:08:37;;;;;;;4.90;3.03;;;16.60;99.90;;;;;;5072329;28;20241;-69
2022/06/28 02:11:06;;;;;;;6.10;3.00;;;16.60;99.90;;;;;;5064345;28;20206;-69
2022/06/28 02:13:33;;;;;;;3.97;2.33;;;16.60;99.90;;;;;;5073556;28;20206;-69
2022/06/28 02:16:03;;;;;;;5.93;2.95;;;16.60;99.90;;;;;;5072661;28;20232;-70
2022/06/28 02:18:32;;;;;;;7.03;2.97;;;16.60;99.90;;;;;;5071703;28;20293;-69
2022/06/28 02:20:59;;;;;;;3.53;3.03;;;16.60;99.90;;;;;;5071990;28;20216;-70
2022/06/28 02:23:26;;;;;;;8.27;3.13;;;16.70;99.90;;;;;;5071497;28;20225;-69
2022/06/28 02:25:54;;;;;;;7.32;3.45;;;16.60;99.90;;;;;;5072438;28;20712;-70
2022/06/28 02:28:21;;;;;;;5.97;2.83;;;16.60;99.90;;;;;;5074388;28;20202;-72
2022/06/28 02:30:48;;;;;;;5.22;3.30;;;16.70;99.90;;;;;;5073555;28;20202;-70
2022/06/28 02:33:16;;;;;;;5.47;2.85;;;16.60;99.90;;;;;;5075461;28;20232;-70
2022/06/28 02:41:12;;;;;;;3.42;2.15;;;16.60;99.90;;;;;;5067752;28;20213;-70
2022/06/28 02:43:39;;;;;;;3.17;2.50;;;16.60;99.90;;;;;;5080182;28;20624;-70
2022/06/28 02:46:06;;;;;;;3.53;2.83;;;16.60;99.90;;;;;;5076090;28;20229;-70
2022/06/28 02:48:34;;;;;;;4.40;3.30;;;16.60;99.90;;;;;;5080556;28;20205;-70
2022/06/28 02:51:01;;;;;;;7.68;3.47;;;16.60;99.90;;;;;;5078087;28;20248;-70
2022/06/28 02:53:28;;;;;;;5.72;2.85;;;16.60;99.90;;;;;;5080245;28;20633;-70
2022/06/28 02:55:55;;;;;;;5.03;2.83;;;16.60;99.90;;;;;;5079992;28;20252;-70
2022/06/28 02:58:22;;;;;;;5.45;2.92;;;16.60;99.90;;;;;;5074124;28;20207;-70
2022/06/28 03:00:49;;;;;;;5.32;3.08;;;16.60;99.90;;;;;;5074950;28;20205;-71
2022/06/28 03:03:16;;;;;;;7.78;3.45;;;16.50;99.90;;;;;;5079019;28;20202;-70
2022/06/28 03:05:45;;;;;;;3.97;3.05;;;16.60;99.90;;;;;;5070706;28;20702;-70
2022/06/28 03:08:12;;;;;;;5.25;2.80;;;16.60;99.90;;;;;;5070871;28;20202;-71
2022/06/28 03:10:39;;;;;;;3.22;2.30;;;16.50;99.90;;;;;;5071494;28;20256;-70
2022/06/28 03:13:06;;;;;;;3.92;2.17;;;16.50;99.90;;;;;;5073205;28;20217;-70
2022/06/28 03:15:33;;;;;;;5.18;2.47;;;16.50;99.90;;;;;;5072588;28;20210;-70
2022/06/28 03:18:01;;;;;;;3.45;3.13;;;16.50;99.90;;;;;;5071466;28;20210;-70
2022/06/28 03:20:29;;;;;;;2.53;2.15;;;16.50;99.90;;;;;;5070647;28;20750;-70
2022/06/28 03:22:57;;;;;;;4.13;2.70;;;16.60;99.90;;;;;;5071033;28;20692;-69
2022/06/28 03:25:24;;;;;;;6.40;2.92;;;16.50;99.90;;;;;;5073170;28;20229;-69
2022/06/28 03:27:51;;;;;;;4.47;2.42;;;16.50;99.90;;;;;;5067284;28;20354;-70
2022/06/28 03:30:18;;;;;;;5.03;2.22;;;16.50;99.90;;;;;;5069845;28;20263;-70
2022/06/28 03:32:45;;;;;;;5.55;2.30;;;16.50;99.90;;;;;;5069170;28;20202;-70
2022/06/28 03:35:13;;;;;;;4.38;2.13;;;16.50;99.90;;;;;;5060297;28;20211;-70
2022/06/28 03:37:40;;;;;;;5.82;2.28;;;16.50;99.90;;;;;;5069165;28;20251;-70
2022/06/28 03:40:09;;;;;;;4.57;2.70;;;16.40;99.90;;;;;;5070179;28;20256;-70
2022/06/28 03:42:36;;;;;;;3.05;2.45;;;16.50;99.90;;;;;;5070109;28;20264;-70
2022/06/28 03:45:06;;;;;;;5.72;2.65;;;16.50;99.90;;;;;;5070924;28;20202;-70
2022/06/28 03:47:33;;;;;;;5.07;1.90;;;16.40;99.90;;;;;;5070271;28;20237;-71
2022/06/28 03:50:00;;;;;;;3.65;3.35;;;16.50;99.90;;;;;;5070290;28;20202;-70
2022/06/28 03:52:29;;;;;;;7.50;3.50;;;16.50;99.90;;;;;;5069639;28;20252;-70
2022/06/28 03:54:56;;;;;;;2.70;2.17;;;16.50;99.90;;;;;;5070042;28;20587;-70
2022/06/28 03:57:25;;;;;;;3.60;3.17;;;16.40;99.90;;;;;;5069998;28;20259;-70
2022/06/28 03:59:52;;;;;;;8.18;2.60;;;16.40;99.90;;;;;;5069989;28;20244;-71
2022/06/28 04:02:19;;;;;;;4.75;3.22;;;16.40;99.90;;;;;;5069895;28;20678;-70
2022/06/28 04:04:46;;;;;;;7.45;2.92;;;16.50;99.90;;;;;;5069844;28;20327;-70
2022/06/28 04:07:13;;;;;;;6.50;3.00;;;16.50;99.90;;;;;;5069672;28;20230;-70
2022/06/28 04:09:40;;;;;;;3.67;2.55;;;16.40;99.90;;;;;;5070181;28;20205;-70
2022/06/28 04:12:08;;;;;;;3.28;2.72;;;16.40;99.90;;;;;;5070158;28;20219;-70
2022/06/28 04:14:36;;;;;;;4.90;2.63;;;16.40;99.90;;;;;;5070234;28;20624;-70
2022/06/28 04:17:03;;;;;;;3.33;2.03;;;16.30;99.90;;;;;;5075760;28;20213;-70
2022/06/28 04:19:30;;;;;;;3.70;2.00;;;16.40;99.90;;;;;;5089958;28;20236;-71
2022/06/28 04:21:57;;;;;;;4.80;2.17;;;16.30;99.90;;;;;;5089930;28;20206;-70
2022/06/28 04:24:24;;;;;;;4.68;2.35;;;16.30;99.90;;;;;;5089826;28;20253;-70
2022/06/28 04:26:51;;;;;;;5.15;2.10;;;16.30;99.90;;;;;;5089912;28;20720;-69
2022/06/28 04:29:18;;;;;;;4.78;2.50;;;16.30;99.90;;;;;;5089719;28;20726;-69
2022/06/28 04:31:47;;;;;;;4.15;2.53;;;16.30;99.90;;;;;;5089806;28;20260;-70
2022/06/28 04:34:14;;;;;;;4.20;2.72;;;16.30;99.90;;;;;;5091223;28;20209;-69
2022/06/28 04:36:40;;;;;;;8.65;2.88;;;16.30;99.90;;;;;;5093747;28;20624;-69
2022/06/28 04:39:07;;;;;;;4.05;2.40;;;16.30;99.90;;;;;;5093419;28;20205;-70
2022/06/28 04:41:34;;;;;;;3.28;2.20;;;16.30;99.90;;;;;;5093734;28;20213;-70
2022/06/28 04:44:02;;;;;;;3.50;2.05;;;16.30;99.90;;;;;;5093557;28;20254;-70
2022/06/28 04:46:29;;;;;;;7.28;2.65;;;16.30;99.90;;;;;;5093028;28;20337;-70
2022/06/28 04:48:57;;;;;;;3.65;2.20;;;16.30;99.90;;;;;;5092761;28;20688;-70
2022/06/28 04:51:24;;;;;;;4.15;2.38;;;16.40;99.90;;;;;;5093207;28;20255;-70
2022/06/28 04:53:51;;;;;;;5.55;2.38;;;16.30;99.90;;;;;;5093297;28;20266;-70
2022/06/28 04:56:18;;;;;;;5.22;2.20;;;16.40;99.90;;;;;;5092624;28;20260;-70
2022/06/28 04:58:45;;;;;;;4.82;2.60;;;16.40;99.90;;;;;;5093363;28;20224;-70
2022/06/28 05:01:12;;;;;;;2.67;1.95;;;16.40;99.90;;;;;;5092573;28;20266;-71
2022/06/28 05:03:40;;;;;;;5.88;3.08;;;16.50;99.90;;;;;;5093100;28;20289;-70
2022/06/28 05:06:08;;;;;;;4.65;2.40;;;16.50;99.90;;;;;;5093288;28;20225;-69
2022/06/28 05:08:35;;;;;;;4.30;2.03;;;16.50;99.90;;;;;;5093673;28;20206;-70
2022/06/28 05:11:03;;;;;;;5.63;2.85;;;16.60;99.90;;;;;;5093570;28;20205;-70
2022/06/28 05:13:30;;;;;;;6.05;2.10;;;16.60;99.90;;;;;;5092993;28;20259;-71
2022/06/28 05:15:57;;;;;;;3.40;2.17;;;16.60;99.90;;;;;;5082548;28;20210;-71
2022/06/28 05:18:24;;;;;;;2.83;2.33;;;16.60;99.90;;;;;;5082257;28;20232;-71
2022/06/28 05:20:51;;;;;;;5.70;3.60;;;16.70;99.90;;;;;;5072856;28;20206;-71
2022/06/28 05:23:19;;;;;;;6.07;2.40;;;16.70;99.90;;;;;;5072382;28;20739;-71
2022/06/28 05:25:46;;;;;;;4.40;2.83;;;16.70;99.90;;;;;;5062113;28;20268;-70
2022/06/28 05:28:13;;;;;;;3.03;2.17;;;16.70;99.90;;;;;;5061754;28;20267;-71
2022/06/28 05:30:40;;;;;;;2.38;1.90;;;16.70;99.90;;;;;;5068917;28;20203;-69
2022/06/28 05:33:07;;;;;;;6.03;2.00;;;16.80;99.90;;;;;;5073111;28;20209;-71
2022/06/28 05:35:34;;;;;;;3.05;2.58;;;16.80;99.90;;;;;;5065781;28;20211;-70
2022/06/28 05:38:02;;;;;;;5.72;3.30;;;16.90;99.90;;;;;;5072426;28;20202;-69
2022/06/28 05:40:31;;;;;;;2.35;2.10;;;17.00;99.90;;;;;;5072147;28;20206;-69
2022/06/28 05:42:58;;;;;;;4.57;2.03;;;17.10;99.90;;;;;;5072253;28;20210;-70
2022/06/28 05:45:25;;;;;;;2.63;2.15;;;17.10;99.90;;;;;;5071837;28;20206;-71
2022/06/28 05:47:52;;;;;;;5.95;2.10;;;17.20;99.90;;;;;;5071676;28;21019;-69
2022/06/28 05:50:19;;;;;;;4.18;2.55;;;17.20;99.90;;;;;;5071987;28;20210;-68
2022/06/28 05:52:47;;;;;;;5.72;1.90;;;17.30;99.90;;;;;;5072030;28;20202;-69
2022/06/28 05:55:14;;;;;;;3.97;1.98;;;17.40;99.90;;;;;;5071819;28;20206;-70
2022/06/28 05:57:42;;;;;;;4.53;2.05;;;17.50;99.90;;;;;;5071792;28;20206;-69
2022/06/28 06:00:10;;;;;;;2.55;1.70;;;17.50;99.90;;;;;;5058956;28;20203;-69
2022/06/28 06:02:37;;;;;;;2.83;2.15;;;17.50;99.90;;;;;;5071984;28;20283;-69
2022/06/28 06:05:06;;;;;;;3.22;2.13;;;17.60;99.90;;;;;;5072087;28;20284;-69
2022/06/28 06:07:33;;;;;;;3.17;1.90;;;17.70;99.90;;;;;;5068833;28;20782;-69
2022/06/28 06:10:00;;;;;;;4.13;2.45;;;17.60;99.90;;;;;;5072028;28;20244;-69
2022/06/28 06:12:27;;;;;;;7.43;2.10;;;17.70;99.90;;;;;;5071456;28;21655;-69
2022/06/28 06:14:56;;;;;;;4.75;2.00;;;17.70;99.90;;;;;;5071416;28;20623;-69
2022/06/28 06:17:23;;;;;;;2.83;1.65;;;17.80;99.90;;;;;;5079325;28;20737;-69
2022/06/28 06:19:50;;;;;;;2.95;1.95;;;17.90;99.90;;;;;;5092055;28;20250;-69
2022/06/28 06:22:17;;;;;;;2.75;1.80;;;18.00;99.90;;;;;;5091566;28;20699;-69
2022/06/28 06:24:44;;;;;;;2.55;1.67;;;18.10;99.90;;;;;;5091838;28;20720;-69
2022/06/28 06:27:11;;;;;;;6.03;1.73;;;18.20;99.90;;;;;;5091042;28;20279;-70
2022/06/28 06:29:37;;;;;;;5.18;2.05;;;18.20;99.90;;;;;;5091737;28;20209;-70
2022/06/28 06:32:07;;;;;;;7.40;1.73;;;18.20;99.90;;;;;;5091852;28;20202;-69
2022/06/28 06:34:34;;;;;;;2.20;1.00;;;18.30;99.90;;;;;;5078549;28;20210;-69
2022/06/28 06:37:01;;;;;;;4.35;1.30;;;18.40;99.90;;;;;;5073816;28;20214;-69
2022/06/28 06:39:28;;;;;;;2.78;1.27;;;18.40;99.90;;;;;;5070985;28;20263;-70
2022/06/28 06:41:55;;;;;;;7.45;1.40;;;18.50;99.90;;;;;;5067686;28;20214;-68
2022/06/28 06:44:22;;;;;;;2.60;1.02;;;18.70;99.90;;;;;;5063490;28;20256;-69
2022/06/28 06:46:49;;;;;;;5.10;1.50;;;18.70;99.90;;;;;;5064662;28;20230;-69
2022/06/28 06:49:18;;;;;;;7.07;2.08;;;18.60;99.90;;;;;;5070119;28;20214;-68
2022/06/28 06:51:47;;;;;;;3.00;1.27;;;18.70;99.90;;;;;;5070110;28;20213;-68
2022/06/28 06:54:15;;;;;;;3.20;1.20;;;18.90;99.90;;;;;;5070222;28;20202;-69
2022/06/28 06:56:43;;;;;;;2.10;0.95;;;19.00;99.90;;;;;;5070580;28;20221;-69
2022/06/28 06:59:11;;;;;;;2.42;1.20;;;18.80;99.90;;;;;;5070133;28;20686;-70
2022/06/28 07:01:38;;;;;;;2.38;1.17;;;18.70;99.90;;;;;;5068408;28;20208;-68
2022/06/28 07:04:06;;;;;;;2.03;1.52;;;18.80;99.90;;;;;;5060721;28;20728;-68
2022/06/28 07:06:34;;;;;;;2.50;1.58;;;18.80;99.90;;;;;;5072105;28;20210;-68
2022/06/28 07:09:01;;;;;;;4.32;1.73;;;19.00;99.90;;;;;;5065921;28;20253;-68
2022/06/28 07:11:28;;;;;;;2.00;1.25;;;19.10;99.90;;;;;;5070215;28;20257;-69
2022/06/28 07:13:55;;;;;;;6.20;1.75;;;19.10;99.90;;;;;;5088950;28;20325;-69
2022/06/28 07:16:22;;;;;;;4.80;1.30;;;19.50;99.90;;;;;;5071083;28;20211;-71
2022/06/28 07:18:49;;;;;;;2.78;1.15;;;19.70;99.90;;;;;;5063705;28;20202;-71
2022/06/28 07:21:16;;;;;;;5.60;1.15;;;19.50;99.90;;;;;;5075345;28;20263;-71
2022/06/28 07:23:44;;;;;;;4.45;1.27;;;19.20;99.90;;;;;;5063924;28;20214;-69
2022/06/28 07:26:11;;;;;;;4.28;1.65;;;19.10;99.90;;;;;;5075691;28;20263;-68
2022/06/28 07:28:38;;;;;;;7.10;2.17;;;19.20;99.90;;;;;;5078713;28;20233;-70
2022/06/28 07:31:05;;;;;;;3.50;0.80;;;19.70;99.90;;;;;;5070675;28;20248;-71
2022/06/28 07:33:32;;;;;;;4.28;1.10;;;20.00;99.90;;;;;;5080838;28;20211;-72
2022/06/28 07:35:59;;;;;;;4.60;1.70;;;20.20;99.90;;;;;;5072742;28;20224;-71
2022/06/28 07:38:29;;;;;;;3.85;0.80;;;20.30;99.90;;;;;;5082144;28;20206;-69
2022/06/28 07:40:57;;;;;;;3.55;1.23;;;20.50;99.90;;;;;;5063163;28;20700;-70
2022/06/28 07:43:25;;;;;;;3.88;0.90;;;20.80;99.90;;;;;;5083084;28;20251;-68
2022/06/28 07:45:52;;;;;;;1.65;0.75;;;20.70;99.90;;;;;;5079601;28;20198;-67
2022/06/28 07:48:19;;;;;;;1.58;1.02;;;20.70;99.90;;;;;;5077782;28;20603;-69
2022/06/28 07:53:31;;;;;;;1.73;1.25;;;20.40;99.90;;;;;;5068573;28;20259;-69
2022/06/28 07:55:59;;;;;;;1.75;0.80;;;20.20;99.90;;;;;;5081832;28;20202;-69
2022/06/28 07:58:26;;;;;;;7.82;2.75;;;20.20;99.90;;;;;;5075472;28;20252;-68
2022/06/28 08:00:54;;;;;;;1.80;1.33;;;20.40;99.90;;;;;;5083934;28;20644;-72
2022/06/28 08:03:20;;;;;;;5.40;1.30;;;20.50;99.90;;;;;;5085516;28;20228;-73
2022/06/28 08:05:47;;;;;;;3.25;1.10;;;20.50;99.90;;;;;;5086940;28;20275;-68
2022/06/28 08:08:14;;;;;;;2.40;1.15;;;20.50;99.90;;;;;;5070428;28;20276;-68
2022/06/28 08:10:42;;;;;;;6.68;1.23;;;20.90;99.90;;;;;;5081498;28;20205;-68
2022/06/28 08:13:12;;;;;;;5.93;2.00;;;22.00;99.90;;;;;;5076214;28;20587;-70
2022/06/28 08:15:40;;;;;;;3.00;1.30;;;21.50;99.90;;;;;;5078180;28;20589;-68
2022/06/28 08:18:07;;;;;;;4.45;1.50;;;21.50;99.90;;;;;;5081398;28;20448;-68
2022/06/28 08:20:34;;;;;;;6.60;1.20;;;21.00;99.90;;;;;;5094645;28;20220;-68
2022/06/28 08:23:01;;;;;;;5.07;1.45;;;20.80;99.90;;;;;;5093647;28;20708;-67
2022/06/28 08:25:29;;;;;;;2.65;1.48;;;20.80;99.90;;;;;;5093683;28;20249;-71
2022/06/28 08:27:55;;;;;;;3.70;1.00;;;20.70;99.90;;;;;;5093982;28;20294;-70
2022/06/28 08:30:25;;;;;;;2.38;0.82;;;20.60;99.90;;;;;;5093848;28;20201;-70
2022/06/28 08:32:52;;;;;;;3.30;0.73;;;20.50;99.90;;;;;;5094236;28;20213;-75
2022/06/28 08:35:20;;;;;;;2.92;1.17;;;20.50;99.90;;;;;;5070770;28;20252;-82
2022/06/28 08:37:47;;;;;;;2.92;1.17;;;20.70;99.90;;;;;;5093929;28;20710;-75
2022/06/28 08:40:14;;;;;;;4.45;1.65;;;20.70;99.90;;;;;;5083943;28;20252;-75
2022/06/28 08:42:49;;;;;;;3.70;1.00;;;20.70;99.90;;;;;;5093883;28;20285;-77
2022/06/28 08:45:17;;;;;;;3.15;0.88;;;21.30;99.90;;;;;;5093680;28;20207;-76
2022/06/28 08:47:48;;;;;;;1.88;1.15;;;21.50;99.90;;;;;;5088705;28;20320;-71
2022/06/28 08:50:20;;;;;;;1.45;0.90;;;21.60;99.90;;;;;;5077929;28;20627;-69
2022/06/28 08:52:49;;;;;;;1.92;1.13;;;21.90;99.90;;;;;;5090064;28;20217;-73
2022/06/28 08:55:16;;;;;;;4.13;1.20;;;22.30;99.90;;;;;;5089981;28;20247;-73
2022/06/28 08:57:44;;;;;;;4.65;1.58;;;22.20;99.90;;;;;;5088773;28;20206;-71
2022/06/28 09:00:13;;;;;;;2.80;1.38;;;22.00;99.90;;;;;;5090962;28;20205;-71
2022/06/28 09:02:40;;;;;;;4.13;1.65;;;22.00;99.90;;;;;;5089286;28;20206;-75
2022/06/28 09:05:09;;;;;;;2.10;0.60;;;22.60;99.90;;;;;;5083489;28;20734;-73
2022/06/28 09:07:36;;;;;;;8.13;1.00;;;22.60;99.90;;;;;;5087810;28;20761;-73
2022/06/28 09:10:03;;;;;;;5.25;1.42;;;22.70;99.90;;;;;;5086637;28;20213;-73
2022/06/28 09:12:33;;;;;;;2.22;1.30;;;22.70;99.90;;;;;;5081097;28;20205;-73
2022/06/28 09:15:04;;;;;;;1.67;1.08;;;22.70;99.90;;;;;;5069145;28;20296;-72
2022/06/28 09:17:33;;;;;;;2.75;1.27;;;23.00;99.90;;;;;;5073491;28;20304;-71
2022/06/28 09:20:02;;;;;;;3.75;1.35;;;24.90;99.90;;;;;;5079259;28;20248;-71
2022/06/28 09:22:34;;;;;;;2.90;1.73;;;26.20;99.90;;;;;;5070630;28;20238;-72
2022/06/28 09:25:03;;;;;;;5.95;2.10;;;27.70;99.90;;;;;;5075024;28;20697;-72
2022/06/28 09:27:33;;;;;;;1.48;0.65;;;29.70;99.90;;;;;;5086606;28;20619;-71
2022/06/28 09:30:00;;;;;;;1.80;1.23;;;31.70;99.90;;;;;;5085244;28;20210;-72
2022/06/28 09:32:29;;;;;;;4.70;1.35;;;32.70;99.90;;;;;;5072149;28;20259;-70
2022/06/28 09:34:58;;;;;;;2.47;1.10;;;35.20;99.90;;;;;;5071341;28;20210;-72
2022/06/28 09:37:49;;;;;;;2.60;1.13;;;35.50;99.90;;;;;;5080686;28;20700;-72
2022/06/28 09:40:18;;;;;;;7.63;2.47;;;35.80;99.90;;;;;;5082066;28;20210;-71
2022/06/28 09:42:47;;;;;;;3.83;1.52;;;35.40;99.90;;;;;;5068222;28;20209;-72
2022/06/28 09:45:16;;;;;;;1.42;1.20;;;35.40;99.90;;;;;;5082657;28;20209;-73
2022/06/28 09:47:46;;;;;;;4.68;1.30;;;34.30;99.90;;;;;;5087555;28;20304;-72
2022/06/28 09:50:13;;;;;;;2.97;1.60;;;32.70;99.90;;;;;;5084934;28;20654;-73
2022/06/28 09:52:45;;;;;;;3.10;1.48;;;30.60;99.90;;;;;;5073453;28;20677;-71
2022/06/28 09:55:15;;;;;;;3.92;1.17;;;31.30;99.90;;;;;;5075306;28;20209;-73
2022/06/28 09:57:44;;;;;;;2.33;1.10;;;32.20;99.90;;;;;;5074489;28;20205;-71
2022/06/28 10:00:12;;;;;;;3.63;1.20;;;31.00;99.90;;;;;;5077954;28;20215;-73
2022/06/28 10:02:41;;;;;;;5.38;1.75;;;30.00;99.90;;;;;;5076103;28;20209;-72
2022/06/28 10:05:08;;;;;;;3.30;1.30;;;32.30;99.90;;;;;;5076549;28;20242;-73
2022/06/28 10:07:36;;;;;;;4.03;1.45;;;35.00;99.90;;;;;;5078040;28;20792;-72
2022/06/28 10:10:05;;;;;;;4.70;1.23;;;36.90;99.90;;;;;;5074062;28;20241;-73
2022/06/28 10:15:19;;;;;;;6.20;1.75;;;36.90;99.90;;;;;;5071128;28;20258;-71
2022/06/28 10:17:55;;;;;;;3.38;1.10;;;36.50;99.90;;;;;;5082874;28;20681;-72
2022/06/28 10:20:24;;;;;;;1.73;1.05;;;37.20;99.90;;;;;;5091355;28;20204;-72
2022/06/28 10:22:51;;;;;;;1.80;1.00;;;35.80;99.90;;;;;;5091990;28;20250;-72
2022/06/28 10:25:21;;;;;;;2.30;1.00;;;36.40;99.90;;;;;;5091483;28;20208;-74
2022/06/28 10:27:51;;;;;;;2.25;1.00;;;37.50;99.90;;;;;;5091217;28;20221;-71
2022/06/28 10:30:36;;;;;;;8.00;1.38;;;36.70;99.90;;;;;;5091171;28;20209;-72
2022/06/28 10:33:06;;;;;;;1.98;1.08;;;35.30;99.90;;;;;;5091894;28;20215;-71
2022/06/28 10:36:13;;;;;;;3.13;1.83;;;35.80;99.90;;;;;;5092098;28;20205;-72
2022/06/28 10:39:31;;;;;;;5.15;1.70;;;35.40;99.90;;;;;;5091249;28;20672;-73
2022/06/28 10:42:12;;;;;;;2.13;1.65;;;31.70;99.90;;;;;;5029103;28;20722;-72
2022/06/28 10:44:48;;;;;;;1.45;1.35;;;27.60;99.90;;;;;;5083375;28;20293;-72
2022/06/28 10:47:16;;;;;;;1.20;0.80;;;25.70;99.90;;;;;;5090696;28;20211;-71
2022/06/28 10:49:56;;;;;;;1.25;0.88;;;25.40;99.90;;;;;;5091713;28;20233;-70
2022/06/28 10:52:25;;;;;;;1.20;1.08;;;25.10;99.90;;;;;;5090792;28;20209;-71
2022/06/28 10:55:21;;;;;;;1.80;1.40;;;25.20;99.90;;;;;;5091476;28;20230;-71
2022/06/28 10:57:49;;;;;;;4.35;1.30;;;25.20;99.90;;;;;;5091210;28;20246;-71
2022/06/28 11:00:26;;;;;;;4.10;1.80;;;25.30;99.90;;;;;;5091133;28;20205;-71
2022/06/28 11:03:01;;;;;;;1.25;1.10;;;25.00;99.90;;;;;;5091143;28;20201;-71
2022/06/28 11:05:45;;;;;;;2.65;1.52;;;25.30;99.90;;;;;;5090580;28;20212;-72
2022/06/28 11:08:15;;;;;;;3.42;1.20;;;25.60;99.90;;;;;;5077456;28;20311;-70
2022/06/28 11:11:01;;;;;;;3.05;0.90;;;25.70;99.90;;;;;;5091210;28;20209;-72
2022/06/28 11:13:28;;;;;;;2.70;1.23;;;25.50;99.90;;;;;;5065975;28;20602;-70
2022/06/28 11:15:56;;;;;;;2.03;0.73;;;25.00;99.90;;;;;;5080836;28;20213;-71
2022/06/28 11:18:24;;;;;;;2.58;1.17;;;25.10;99.90;;;;;;5086647;28;20334;-70
2022/06/28 11:20:52;;;;;;;2.05;1.05;;;25.30;99.90;;;;;;5091090;28;20212;-73
2022/06/28 11:23:26;;;;;;;2.90;1.88;;;25.30;99.90;;;;;;5090281;28;20212;-71
2022/06/28 11:28:53;;;;;;;4.90;1.70;;;25.70;99.90;;;;;;5090806;28;20774;-70
2022/06/28 11:31:22;;;;;;;2.05;0.93;;;25.80;99.90;;;;;;5090398;28;20275;-70
2022/06/28 11:33:49;;;;;;;4.22;0.98;;;25.70;99.90;;;;;;5090776;28;20208;-70
2022/06/28 11:36:26;;;;;;;6.10;1.20;;;25.40;99.90;;;;;;5090399;28;20204;-70
2022/06/28 11:38:53;;;;;;;2.55;1.48;;;25.50;99.90;;;;;;5090658;28;20211;-70
2022/06/28 11:41:30;;;;;;;0.90;0.85;;;25.90;99.90;;;;;;5090029;28;20213;-70
2022/06/28 11:43:59;;;;;;;2.75;1.00;;;25.60;99.90;;;;;;5090320;28;20247;-74
2022/06/28 11:46:28;;;;;;;1.95;0.90;;;24.80;99.90;;;;;;5090509;28;20296;-70
2022/06/28 11:48:56;;;;;;;2.97;1.60;;;25.30;99.90;;;;;;5090262;28;20773;-70
2022/06/28 11:51:29;;;;;;;1.25;0.90;;;25.70;99.90;;;;;;5090239;28;20209;-70
2022/06/28 11:53:56;;;;;;;1.33;1.23;;;25.80;99.90;;;;;;5090308;28;20216;-72
2022/06/28 11:56:23;;;;;;;17.65;1.70;;;25.80;99.90;;;;;;5090493;28;20218;-72
2022/06/28 11:58:50;;;;;;;1.80;1.10;;;25.90;99.90;;;;;;5090659;28;20218;-72
2022/06/28 12:01:18;;;;;;;1.77;1.08;;;25.90;99.90;;;;;;5090014;28;20205;-70
2022/06/28 12:04:02;;;;;;;1.42;1.33;;;25.90;99.90;;;;;;5090315;28;20205;-70
2022/06/28 12:06:30;;;;;;;3.22;1.65;;;25.80;99.90;;;;;;5062217;28;20256;-71
2022/06/28 12:08:59;;;;;;;1.10;1.00;;;26.10;99.90;;;;;;5090610;28;20233;-71
2022/06/28 12:11:35;;;;;;;0.60;0.60;;;26.10;99.90;;;;;;5089768;28;20734;-72
2022/06/28 12:14:06;;;;;;;1.40;1.30;;;26.20;99.90;;;;;;5090900;28;20248;-71
2022/06/28 12:16:36;;;;;;;3.17;0.80;;;26.40;99.90;;;;;;5074936;28;20749;-73
2022/06/28 12:19:05;;;;;;;20.60;4.28;;;26.20;99.90;;;;;;5082945;28;20201;-72
2022/06/28 12:21:32;;;;;;;2.50;1.27;;;26.10;99.90;;;;;;5088484;28;20237;-71
2022/06/28 12:24:00;;;;;;;0.95;0.68;;;26.10;99.90;;;;;;5070105;28;20202;-72
2022/06/28 12:26:41;;;;;;;1.33;1.15;;;26.20;99.90;;;;;;5066778;28;20206;-73
2022/06/28 12:29:09;;;;;;;1.80;0.98;;;26.40;99.90;;;;;;5063158;28;20803;-72
2022/06/28 12:31:39;;;;;;;1.15;0.90;;;26.30;99.90;;;;;;5061512;28;20211;-72
2022/06/28 12:34:08;;;;;;;1.30;1.02;;;26.50;99.90;;;;;;5083483;28;20206;-73
2022/06/28 12:36:35;;;;;;;3.13;0.90;;;26.30;99.90;;;;;;5087051;28;20263;-71
2022/06/28 12:39:03;;;;;;;3.15;1.25;;;26.30;99.90;;;;;;5088339;28;20202;-71
2022/06/28 12:41:31;;;;;;;3.70;0.95;;;26.40;99.90;;;;;;5088590;28;20223;-70
2022/06/28 12:43:58;;;;;;;0.80;0.80;;;26.40;99.90;;;;;;5083693;28;20619;-73
2022/06/28 12:46:25;;;;;;;5.85;1.70;;;26.40;99.90;;;;;;5081793;28;20206;-72
2022/06/28 12:48:52;;;;;;;4.50;1.30;;;26.30;99.90;;;;;;5080979;28;20284;-72
2022/06/28 12:51:21;;;;;;;2.47;1.10;;;26.30;99.90;;;;;;5074066;28;20750;-71
2022/06/28 12:53:48;;;;;;;2.17;1.20;;;26.50;99.90;;;;;;5071780;28;20224;-72
2022/06/28 12:56:16;;;;;;;1.48;1.00;;;26.40;99.90;;;;;;5074509;28;20260;-72
2022/06/28 12:58:44;;;;;;;3.63;1.13;;;26.40;99.90;;;;;;5067848;28;20270;-71
2022/06/28 13:01:11;;;;;;;1.08;0.80;;;26.40;99.90;;;;;;5085496;28;20263;-72
2022/06/28 13:03:38;;;;;;;1.42;1.13;;;26.70;99.90;;;;;;5089478;28;20263;-72
2022/06/28 13:06:05;;;;;;;2.95;1.15;;;26.70;99.90;;;;;;5086051;28;20202;-71
2022/06/28 13:08:34;;;;;;;1.20;1.10;;;26.40;99.90;;;;;;5084869;28;20306;-71